createdAt,value
2023-02-19T00:00:14.844Z,100181.61
2023-02-19T00:02:48.003Z,100179.70
2023-02-19T00:05:00.569Z,100179.52
2023-02-19T00:07:13.367Z,100174.17
2023-02-19T00:09:26.022Z,100172.13
2023-02-19T00:11:39.365Z,100172.13
2023-02-19T00:13:55.390Z,100172.49
2023-02-19T00:16:08.735Z,100173.84
2023-02-19T00:18:21.358Z,100171.58
2023-02-19T00:20:33.875Z,100168.58
2023-02-19T00:22:46.403Z,100165.90
2023-02-19T00:24:58.956Z,100161.09
2023-02-19T00:27:11.551Z,100158.50
2023-02-19T00:29:25.018Z,100160.91
2023-02-19T00:31:37.821Z,100149.94
2023-02-19T00:33:52.927Z,100155.14
2023-02-19T00:36:06.225Z,100156.26
2023-02-19T00:38:22.472Z,100155.56
2023-02-19T00:40:35.042Z,100157.19
2023-02-19T00:42:47.573Z,100152.59
2023-02-19T00:45:00.115Z,100153.42
2023-02-19T00:47:12.815Z,100152.64
2023-02-19T00:49:25.338Z,100150.05
2023-02-19T00:51:38.432Z,100154.64
2023-02-19T00:53:51.290Z,100152.79
2023-02-19T00:56:04.155Z,100150.52
2023-02-19T00:58:16.697Z,100150.33
2023-02-19T01:00:29.360Z,100151.38
2023-02-19T01:02:41.988Z,100148.15
2023-02-19T01:04:54.563Z,100142.68
2023-02-19T01:07:10.128Z,100137.52
2023-02-19T01:09:22.773Z,100133.88
2023-02-19T01:11:35.594Z,100127.34
2023-02-19T01:13:48.313Z,100126.34
2023-02-19T01:16:10.873Z,100130.90
2023-02-19T01:18:23.433Z,100123.34
2023-02-19T01:20:40.726Z,100117.16
2023-02-19T01:22:53.731Z,100115.18
2023-02-19T01:25:06.486Z,100112.99
2023-02-19T01:27:18.997Z,100109.91
2023-02-19T01:29:31.621Z,100108.02
2023-02-19T01:31:44.215Z,100105.77
2023-02-19T01:33:59.793Z,100104.89
2023-02-19T01:36:13.394Z,100105.50
2023-02-19T01:38:26.053Z,100108.63
2023-02-19T01:40:38.635Z,100109.64
2023-02-19T01:42:51.409Z,100111.91
2023-02-19T01:45:21.034Z,100105.20
2023-02-19T01:47:33.800Z,100101.19
2023-02-19T01:49:52.622Z,100097.85
2023-02-19T01:52:21.314Z,100090.45
2023-02-19T01:54:37.022Z,100086.39
2023-02-19T01:56:50.051Z,100082.91
2023-02-19T01:59:02.757Z,100080.92
2023-02-19T02:01:15.335Z,100079.31
2023-02-19T02:03:28.735Z,100070.25
2023-02-19T02:06:02.195Z,100067.27
2023-02-19T02:08:34.940Z,100059.89
2023-02-19T02:10:47.532Z,100056.70
2023-02-19T02:13:00.098Z,100057.36
2023-02-19T02:15:14.750Z,100057.11
2023-02-19T02:17:41.157Z,100051.93
2023-02-19T02:20:05.613Z,100049.17
2023-02-19T02:22:25.730Z,100046.26
2023-02-19T02:24:41.011Z,100040.16
2023-02-19T02:26:59.568Z,100035.29
2023-02-19T02:29:43.039Z,100028.77
2023-02-19T02:32:12.848Z,100029.89
2023-02-19T02:34:39.658Z,100032.66
2023-02-19T02:36:56.192Z,100025.23
2023-02-19T02:39:13.023Z,100023.35
2023-02-19T02:41:26.069Z,100022.31
2023-02-19T02:43:38.665Z,100029.09
2023-02-19T02:45:51.591Z,100026.65
2023-02-19T02:48:35.303Z,100020.45
2023-02-19T02:50:56.371Z,100025.52
2023-02-19T02:53:32.915Z,100024.82
2023-02-19T02:55:49.544Z,100022.79
2023-02-19T02:58:02.792Z,100023.34
2023-02-19T03:00:15.595Z,100017.83
2023-02-19T03:02:31.341Z,100013.27
2023-02-19T03:05:11.456Z,100014.67
2023-02-19T03:07:26.505Z,100011.17
2023-02-19T03:09:43.120Z,100008.60
2023-02-19T03:12:17.496Z,100001.45
2023-02-19T03:14:59.935Z,100003.42
2023-02-19T03:17:41.722Z,100002.86
2023-02-19T03:19:56.533Z,100004.73
2023-02-19T03:22:17.597Z,100006.55
2023-02-19T03:24:54.099Z,100007.86
2023-02-19T03:27:09.373Z,100004.00
2023-02-19T03:29:25.770Z,99998.21
2023-02-19T03:31:40.472Z,99994.72
2023-02-19T03:33:59.569Z,99983.45
2023-02-19T03:36:15.654Z,99980.38
2023-02-19T03:38:37.331Z,99973.45
2023-02-19T03:40:57.828Z,99971.44
2023-02-19T03:43:34.679Z,99970.47
2023-02-19T03:46:01.927Z,99972.81
2023-02-19T03:48:33.187Z,99975.70
2023-02-19T03:51:14.940Z,99976.27
2023-02-19T03:53:36.636Z,99978.51
2023-02-19T03:56:04.881Z,99977.39
2023-02-19T03:58:28.227Z,99979.04
2023-02-19T04:00:50.380Z,99981.00
2023-02-19T04:03:19.370Z,99984.73
2023-02-19T04:05:35.546Z,99981.02
2023-02-19T04:07:52.148Z,99980.83
2023-02-19T04:10:07.526Z,99980.96
2023-02-19T04:12:21.347Z,99976.47
2023-02-19T04:14:46.165Z,99971.65
2023-02-19T04:17:03.140Z,99965.96
2023-02-19T04:19:20.936Z,99968.32
2023-02-19T04:21:36.075Z,99970.30
2023-02-19T04:23:49.728Z,99968.73
2023-02-19T04:26:03.932Z,99967.95
2023-02-19T04:28:18.300Z,99969.15
2023-02-19T04:30:31.050Z,99965.48
2023-02-19T04:32:43.716Z,99969.93
2023-02-19T04:34:56.188Z,99973.56
2023-02-19T04:37:08.872Z,99971.67
2023-02-19T04:39:21.732Z,99972.52
2023-02-19T04:41:34.277Z,99970.79
2023-02-19T04:43:46.806Z,99972.25
2023-02-19T04:46:01.625Z,99970.25
2023-02-19T04:48:14.878Z,99969.23
2023-02-19T04:50:27.496Z,99963.39
2023-02-19T04:52:40.018Z,99961.33
2023-02-19T04:54:52.553Z,99961.48
2023-02-19T04:57:05.110Z,99957.17
2023-02-19T04:59:18.052Z,99951.36
2023-02-19T05:01:30.642Z,99949.96
2023-02-19T05:03:44.362Z,99947.55
2023-02-19T05:05:57.014Z,99947.44
2023-02-19T05:08:09.627Z,99943.45
2023-02-19T05:10:22.256Z,99943.25
2023-02-19T05:12:34.829Z,99940.19
2023-02-19T05:14:47.367Z,99945.92
2023-02-19T05:16:59.907Z,99943.36
2023-02-19T05:19:12.611Z,99940.77
2023-02-19T05:21:25.190Z,99938.56
2023-02-19T05:23:38.470Z,99940.82
2023-02-19T05:25:51.048Z,99943.92
2023-02-19T05:28:19.304Z,99938.77
2023-02-19T05:30:31.908Z,99934.86
2023-02-19T05:32:44.479Z,99933.88
2023-02-19T05:34:57.013Z,99928.33
2023-02-19T05:37:09.576Z,99927.48
2023-02-19T05:39:22.099Z,99921.40
2023-02-19T05:41:34.822Z,99923.28
2023-02-19T05:43:49.061Z,99925.26
2023-02-19T05:46:01.688Z,99927.48
2023-02-19T05:48:14.340Z,99930.27
2023-02-19T05:50:27.455Z,99926.02
2023-02-19T05:52:40.134Z,99926.52
2023-02-19T05:54:52.615Z,99929.27
2023-02-19T05:57:05.193Z,99930.27
2023-02-19T05:59:20.908Z,99926.86
2023-02-19T06:01:34.046Z,99924.13
2023-02-19T06:03:46.868Z,99927.91
2023-02-19T06:05:59.413Z,99923.80
2023-02-19T06:08:13.783Z,99923.95
2023-02-19T06:10:28.216Z,99925.19
2023-02-19T06:12:40.848Z,99925.02
2023-02-19T06:14:53.559Z,99927.63
2023-02-19T06:17:06.083Z,99930.73
2023-02-19T06:19:18.661Z,99937.80
2023-02-19T06:21:31.662Z,99944.85
2023-02-19T06:23:45.409Z,99947.45
2023-02-19T06:26:12.324Z,99948.70
2023-02-19T06:28:24.907Z,99947.78
2023-02-19T06:30:37.422Z,99947.33
2023-02-19T06:32:52.383Z,99947.48
2023-02-19T06:35:05.415Z,99949.21
2023-02-19T06:37:17.981Z,99953.72
2023-02-19T06:39:30.585Z,99957.90
2023-02-19T06:41:43.214Z,99950.95
2023-02-19T06:44:00.200Z,99952.84
2023-02-19T06:46:13.140Z,99959.95
2023-02-19T06:48:31.081Z,99956.33
2023-02-19T06:50:43.639Z,99960.76
2023-02-19T06:52:56.269Z,99958.88
2023-02-19T06:55:09.103Z,99956.29
2023-02-19T06:57:21.737Z,99965.39
2023-02-19T06:59:34.311Z,99969.12
2023-02-19T07:01:46.835Z,99969.13
2023-02-19T07:03:59.709Z,99972.02
2023-02-19T07:06:12.305Z,99978.88
2023-02-19T07:08:24.994Z,99983.33
2023-02-19T07:10:37.557Z,99993.86
2023-02-19T07:12:50.170Z,100005.25
2023-02-19T07:15:02.720Z,100011.13
2023-02-19T07:17:15.271Z,100014.55
2023-02-19T07:19:27.797Z,100021.97
2023-02-19T07:21:42.357Z,100026.60
2023-02-19T07:23:55.000Z,100029.98
2023-02-19T07:26:12.656Z,100032.17
2023-02-19T07:28:25.829Z,100040.02
2023-02-19T07:30:38.529Z,100041.64
2023-02-19T07:32:51.054Z,100043.89
2023-02-19T07:35:03.712Z,100049.52
2023-02-19T07:37:16.293Z,100051.40
2023-02-19T07:39:28.872Z,100054.63
2023-02-19T07:41:41.634Z,100057.91
2023-02-19T07:43:54.420Z,100061.65
2023-02-19T07:46:11.669Z,100067.90
2023-02-19T07:48:24.302Z,100073.11
2023-02-19T07:50:36.986Z,100077.81
2023-02-19T07:52:49.748Z,100084.27
2023-02-19T07:55:02.290Z,100089.69
2023-02-19T07:57:14.926Z,100094.19
2023-02-19T07:59:27.454Z,100095.85
2023-02-19T08:01:58.744Z,100096.72
2023-02-19T08:04:13.376Z,100104.22
2023-02-19T08:06:26.009Z,100108.58
2023-02-19T08:08:39.658Z,100108.63
2023-02-19T08:11:30.672Z,100113.80
2023-02-19T08:13:43.166Z,100120.27
2023-02-19T08:16:18.272Z,100123.75
2023-02-19T08:18:33.044Z,100129.13
2023-02-19T08:20:45.839Z,100130.00
2023-02-19T08:22:58.391Z,100134.40
2023-02-19T08:25:10.939Z,100137.48
2023-02-19T08:27:23.480Z,100141.95
2023-02-19T08:29:36.009Z,100142.86
2023-02-19T08:31:48.636Z,100146.16
2023-02-19T08:34:01.334Z,100149.42
2023-02-19T08:36:13.936Z,100149.16
2023-02-19T08:38:26.493Z,100154.89
2023-02-19T08:40:40.385Z,100159.76
2023-02-19T08:42:53.446Z,100161.33
2023-02-19T08:45:06.225Z,100166.83
2023-02-19T08:47:18.769Z,100172.35
2023-02-19T08:49:31.252Z,100174.39
2023-02-19T08:51:43.749Z,100177.98
2023-02-19T08:53:56.307Z,100180.67
2023-02-19T08:56:11.991Z,100180.75
2023-02-19T08:58:27.888Z,100186.94
2023-02-19T09:00:40.450Z,100191.27
2023-02-19T09:02:53.098Z,100196.44
2023-02-19T09:05:05.858Z,100197.39
2023-02-19T09:07:19.284Z,100202.33
2023-02-19T09:09:31.809Z,100205.66
2023-02-19T09:11:44.369Z,100210.74
2023-02-19T09:13:57.552Z,100206.35
2023-02-19T09:16:10.697Z,100210.05
2023-02-19T09:18:24.479Z,100214.45
2023-02-19T09:20:36.989Z,100217.13
2023-02-19T09:22:49.599Z,100223.77
2023-02-19T09:25:02.401Z,100223.01
2023-02-19T09:27:19.683Z,100227.15
2023-02-19T09:29:32.179Z,100231.20
2023-02-19T09:31:46.043Z,100235.86
2023-02-19T09:33:58.674Z,100239.84
2023-02-19T09:36:11.850Z,100240.50
2023-02-19T09:38:24.368Z,100236.80
2023-02-19T09:40:38.697Z,100232.28
2023-02-19T09:42:51.819Z,100236.14
2023-02-19T09:45:05.549Z,100239.84
2023-02-19T09:47:30.178Z,100245.95
2023-02-19T09:49:49.971Z,100252.02
2023-02-19T09:52:10.120Z,100254.41
2023-02-19T09:54:26.168Z,100253.79
2023-02-19T09:56:38.901Z,100257.06
2023-02-19T09:58:55.616Z,100257.33
2023-02-19T10:01:11.808Z,100260.29
2023-02-19T10:03:33.691Z,100265.14
2023-02-19T10:05:46.521Z,100275.81
2023-02-19T10:07:59.180Z,100279.17
2023-02-19T10:10:14.569Z,100282.71
2023-02-19T10:12:29.737Z,100294.14
2023-02-19T10:14:46.890Z,100295.44
2023-02-19T10:17:01.737Z,100297.08
2023-02-19T10:19:16.251Z,100302.29
2023-02-19T10:21:28.824Z,100308.32
2023-02-19T10:23:42.358Z,100313.40
2023-02-19T10:25:59.085Z,100314.92
2023-02-19T10:28:17.143Z,100318.23
2023-02-19T10:30:33.189Z,100323.95
2023-02-19T10:33:02.496Z,100327.05
2023-02-19T10:35:16.190Z,100332.36
2023-02-19T10:37:29.455Z,100333.69
2023-02-19T10:39:48.597Z,100340.81
2023-02-19T10:42:03.847Z,100337.68
2023-02-19T10:44:22.549Z,100339.78
2023-02-19T10:46:45.721Z,100339.75
2023-02-19T10:49:00.461Z,100341.38
2023-02-19T10:51:21.749Z,100342.96
2023-02-19T10:53:48.050Z,100348.69
2023-02-19T10:56:24.492Z,100356.11
2023-02-19T10:58:42.242Z,100369.47
2023-02-19T11:01:16.758Z,100370.36
2023-02-19T11:03:29.250Z,100365.81
2023-02-19T11:06:02.369Z,100369.15
2023-02-19T11:08:22.849Z,100369.77
2023-02-19T11:10:42.291Z,100374.69
2023-02-19T11:12:58.933Z,100376.59
2023-02-19T11:15:25.037Z,100381.65
2023-02-19T11:17:37.784Z,100382.76
2023-02-19T11:19:54.102Z,100385.59
2023-02-19T11:22:33.589Z,100386.69
2023-02-19T11:24:56.693Z,100386.56
2023-02-19T11:27:19.187Z,100391.84
2023-02-19T11:29:34.942Z,100390.06
2023-02-19T11:31:47.694Z,100390.43
2023-02-19T11:34:30.005Z,100387.33
2023-02-19T11:36:42.712Z,100392.67
2023-02-19T11:38:57.080Z,100389.27
2023-02-19T11:41:30.115Z,100386.90
2023-02-19T11:44:04.250Z,100392.90
2023-02-19T11:46:29.441Z,100394.33
2023-02-19T11:48:50.704Z,100391.94
2023-02-19T11:51:15.803Z,100391.01
2023-02-19T11:53:32.153Z,100388.56
2023-02-19T11:56:07.232Z,100388.04
2023-02-19T11:58:59.512Z,100389.28
2023-02-19T12:01:31.851Z,100389.77
2023-02-19T12:04:22.635Z,100392.67
2023-02-19T12:07:17.968Z,100396.14
2023-02-19T12:09:50.520Z,100406.13
2023-02-19T12:12:30.737Z,100404.61
2023-02-19T12:14:58.314Z,100410.08
2023-02-19T12:17:32.113Z,100408.85
2023-02-19T12:20:15.704Z,100417.40
2023-02-19T12:22:33.752Z,100416.94
2023-02-19T12:25:10.238Z,100420.80
2023-02-19T12:28:20.010Z,100430.84
2023-02-19T12:30:56.624Z,100434.77
2023-02-19T12:33:24.056Z,100439.83
2023-02-19T12:35:46.364Z,100435.05
2023-02-19T12:38:23.400Z,100439.65
2023-02-19T12:41:06.137Z,100444.38
2023-02-19T12:43:21.618Z,100450.23
2023-02-19T12:46:03.042Z,100451.55
2023-02-19T12:48:28.180Z,100454.25
2023-02-19T12:50:42.899Z,100457.83
2023-02-19T12:53:26.965Z,100459.70
2023-02-19T12:55:44.348Z,100462.81
2023-02-19T12:58:01.308Z,100472.73
2023-02-19T13:00:31.327Z,100475.60
2023-02-19T13:02:59.366Z,100481.73
2023-02-19T13:05:46.566Z,100486.74
2023-02-19T13:08:07.524Z,100492.56
2023-02-19T13:10:50.665Z,100493.64
2023-02-19T13:13:14.439Z,100496.99
2023-02-19T13:15:44.144Z,100495.01
2023-02-19T13:18:01.550Z,100495.60
2023-02-19T13:20:18.182Z,100494.19
2023-02-19T13:23:03.216Z,100494.73
2023-02-19T13:25:18.570Z,100496.97
2023-02-19T13:28:05.048Z,100498.90
2023-02-19T13:30:40.899Z,100501.14
2023-02-19T13:33:16.003Z,100499.40
2023-02-19T13:35:47.247Z,100503.72
2023-02-19T13:38:02.488Z,100506.01
2023-02-19T13:40:30.255Z,100511.99
2023-02-19T13:42:53.937Z,100513.50
2023-02-19T13:45:07.026Z,100517.03
2023-02-19T13:47:46.770Z,100516.42
2023-02-19T13:50:06.873Z,100515.64
2023-02-19T13:52:28.582Z,100517.38
2023-02-19T13:54:41.158Z,100516.43
2023-02-19T13:57:29.047Z,100525.39
2023-02-19T13:59:42.516Z,100522.02
2023-02-19T14:02:16.557Z,100531.27
2023-02-19T14:04:31.970Z,100535.56
2023-02-19T14:07:03.025Z,100532.92
2023-02-19T14:09:43.810Z,100538.02
2023-02-19T14:12:16.030Z,100537.49
2023-02-19T14:14:36.485Z,100548.18
2023-02-19T14:16:52.503Z,100547.54
2023-02-19T14:19:33.956Z,100547.86
2023-02-19T14:21:46.512Z,100558.00
2023-02-19T14:24:00.127Z,100558.98
2023-02-19T14:26:13.072Z,100564.17
2023-02-19T14:28:35.384Z,100566.33
2023-02-19T14:30:55.616Z,100571.44
2023-02-19T14:33:11.411Z,100573.66
2023-02-19T14:35:28.144Z,100577.79
2023-02-19T14:37:41.057Z,100580.71
2023-02-19T14:39:56.637Z,100575.85
2023-02-19T14:42:17.772Z,100584.89
2023-02-19T14:44:39.780Z,100592.05
2023-02-19T14:47:00.572Z,100592.99
2023-02-19T14:49:19.844Z,100595.33
2023-02-19T14:51:41.427Z,100601.27
2023-02-19T14:53:55.817Z,100597.59
2023-02-19T14:56:20.865Z,100600.55
2023-02-19T14:58:34.316Z,100609.66
2023-02-19T15:00:47.142Z,100617.36
2023-02-19T15:03:00.039Z,100623.16
2023-02-19T15:05:24.429Z,100624.14
2023-02-19T15:07:37.116Z,100620.16
2023-02-19T15:09:57.063Z,100627.83
2023-02-19T15:12:26.417Z,100630.74
2023-02-19T15:14:40.190Z,100632.13
2023-02-19T15:16:58.903Z,100632.30
2023-02-19T15:19:16.089Z,100630.06
2023-02-19T15:21:31.704Z,100632.64
2023-02-19T15:23:44.534Z,100628.80
2023-02-19T15:25:58.333Z,100631.78
2023-02-19T15:28:25.773Z,100629.25
2023-02-19T15:30:38.308Z,100637.12
2023-02-19T15:32:56.735Z,100639.66
2023-02-19T15:35:19.932Z,100644.79
2023-02-19T15:37:35.589Z,100644.90
2023-02-19T15:39:49.690Z,100649.70
2023-02-19T15:42:05.333Z,100653.30
2023-02-19T15:44:44.823Z,100654.86
2023-02-19T15:47:00.408Z,100660.78
2023-02-19T15:49:22.072Z,100664.73
2023-02-19T15:51:45.302Z,100666.95
2023-02-19T15:54:04.265Z,100666.80
2023-02-19T15:56:31.455Z,100679.73
2023-02-19T15:58:50.253Z,100682.58
2023-02-19T16:01:26.347Z,100690.70
2023-02-19T16:03:39.433Z,100690.45
2023-02-19T16:06:18.451Z,100699.94
2023-02-19T16:08:36.617Z,100704.17
2023-02-19T16:10:55.100Z,100705.11
2023-02-19T16:13:08.310Z,100707.07
2023-02-19T16:15:21.042Z,100708.52
2023-02-19T16:17:34.181Z,100711.31
2023-02-19T16:19:52.278Z,100713.61
2023-02-19T16:22:04.887Z,100713.98
2023-02-19T16:24:28.014Z,100714.84
2023-02-19T16:26:41.551Z,100717.95
2023-02-19T16:28:55.074Z,100719.32
2023-02-19T16:31:11.212Z,100722.23
2023-02-19T16:33:40.811Z,100729.97
2023-02-19T16:35:53.387Z,100732.75
2023-02-19T16:38:16.498Z,100738.94
2023-02-19T16:40:34.843Z,100744.61
2023-02-19T16:42:50.653Z,100748.73
2023-02-19T16:45:03.265Z,100747.52
2023-02-19T16:47:24.489Z,100750.63
2023-02-19T16:49:37.172Z,100751.48
2023-02-19T16:51:50.781Z,100751.66
2023-02-19T16:54:04.520Z,100758.70
2023-02-19T16:56:21.125Z,100768.84
2023-02-19T16:58:33.823Z,100779.85
2023-02-19T17:00:46.505Z,100778.48
2023-02-19T17:03:08.766Z,100779.36
2023-02-19T17:05:24.320Z,100781.95
2023-02-19T17:07:36.843Z,100787.10
2023-02-19T17:09:49.385Z,100795.18
2023-02-19T17:12:02.201Z,100800.20
2023-02-19T17:14:15.242Z,100798.83
2023-02-19T17:16:40.630Z,100804.86
2023-02-19T17:18:54.442Z,100804.73
2023-02-19T17:21:29.666Z,100811.11
2023-02-19T17:23:42.489Z,100811.20
2023-02-19T17:25:55.264Z,100818.42
2023-02-19T17:28:07.845Z,100815.73
2023-02-19T17:30:29.010Z,100814.71
2023-02-19T17:32:41.609Z,100810.25
2023-02-19T17:34:54.206Z,100812.48
2023-02-19T17:37:07.182Z,100813.69
2023-02-19T17:39:19.927Z,100820.72
2023-02-19T17:41:32.742Z,100829.45
2023-02-19T17:43:45.790Z,100831.88
2023-02-19T17:45:58.447Z,100831.20
2023-02-19T17:48:14.769Z,100835.31
2023-02-19T17:50:30.716Z,100832.39
2023-02-19T17:52:43.305Z,100843.89
2023-02-19T17:54:55.912Z,100844.58
2023-02-19T17:57:08.433Z,100848.52
2023-02-19T17:59:21.116Z,100853.70
2023-02-19T18:01:33.819Z,100857.49
2023-02-19T18:03:46.542Z,100865.56
2023-02-19T18:05:59.288Z,100867.64
2023-02-19T18:08:12.190Z,100866.11
2023-02-19T18:10:25.508Z,100866.79
2023-02-19T18:12:39.478Z,100869.70
2023-02-19T18:14:54.581Z,100875.20
2023-02-19T18:17:07.351Z,100873.30
2023-02-19T18:19:20.266Z,100876.54
2023-02-19T18:21:33.028Z,100875.69
2023-02-19T18:23:46.931Z,100879.96
2023-02-19T18:25:59.787Z,100881.83
2023-02-19T18:28:12.440Z,100885.09
2023-02-19T18:30:25.313Z,100886.64
2023-02-19T18:32:38.143Z,100896.26
2023-02-19T18:34:52.405Z,100899.70
2023-02-19T18:37:05.495Z,100904.17
2023-02-19T18:39:18.836Z,100906.23
2023-02-19T18:41:31.534Z,100906.06
2023-02-19T18:43:44.315Z,100907.79
2023-02-19T18:45:56.918Z,100909.35
2023-02-19T18:48:09.505Z,100912.81
2023-02-19T18:50:22.094Z,100918.31
2023-02-19T18:52:34.627Z,100922.96
2023-02-19T18:54:49.050Z,100929.32
2023-02-19T18:57:03.667Z,100934.99
2023-02-19T18:59:16.532Z,100935.70
2023-02-19T19:01:29.114Z,100929.89
2023-02-19T19:03:41.903Z,100924.58
2023-02-19T19:05:57.515Z,100926.46
2023-02-19T19:08:10.057Z,100926.84
2023-02-19T19:10:23.767Z,100930.77
2023-02-19T19:12:36.291Z,100932.48
2023-02-19T19:14:48.833Z,100926.16
2023-02-19T19:17:01.393Z,100924.44
2023-02-19T19:19:14.609Z,100924.63
2023-02-19T19:21:27.242Z,100926.01
2023-02-19T19:23:39.861Z,100932.00
2023-02-19T19:25:54.536Z,100935.45
2023-02-19T19:28:07.124Z,100935.27
2023-02-19T19:30:20.535Z,100937.69
2023-02-19T19:32:33.172Z,100937.70
2023-02-19T19:34:45.814Z,100942.84
2023-02-19T19:36:58.666Z,100951.07
2023-02-19T19:39:11.906Z,100951.92
2023-02-19T19:41:26.457Z,100956.21
2023-02-19T19:43:40.077Z,100960.16
2023-02-19T19:45:52.599Z,100957.25
2023-02-19T19:48:06.250Z,100954.67
2023-02-19T19:50:19.169Z,100952.96
2023-02-19T19:52:31.715Z,100956.41
2023-02-19T19:54:44.870Z,100955.55
2023-02-19T19:56:57.636Z,100962.23
2023-02-19T19:59:15.004Z,100962.59
2023-02-19T20:01:27.586Z,100970.98
2023-02-19T20:03:40.305Z,100976.47
2023-02-19T20:05:53.044Z,100977.16
2023-02-19T20:08:05.829Z,100976.99
2023-02-19T20:10:20.124Z,100981.80
2023-02-19T20:12:32.728Z,100982.98
2023-02-19T20:14:46.870Z,100982.98
2023-02-19T20:16:59.785Z,100982.13
2023-02-19T20:19:12.341Z,100979.73
2023-02-19T20:21:25.837Z,100981.45
2023-02-19T20:23:39.735Z,100985.56
2023-02-19T20:25:52.225Z,100989.00
2023-02-19T20:28:05.035Z,100992.07
2023-02-19T20:30:20.563Z,100992.23
2023-02-19T20:32:33.283Z,100991.40
2023-02-19T20:34:47.430Z,100988.46
2023-02-19T20:37:00.017Z,100987.27
2023-02-19T20:39:12.704Z,100991.20
2023-02-19T20:41:25.253Z,100996.00
2023-02-19T20:43:38.071Z,100998.23
2023-02-19T20:45:50.593Z,100999.94
2023-02-19T20:48:03.310Z,100998.57
2023-02-19T20:50:17.518Z,101003.87
2023-02-19T20:52:30.232Z,101007.98
2023-02-19T20:54:44.251Z,101011.23
2023-02-19T20:56:59.496Z,101014.30
2023-02-19T20:59:13.838Z,101018.95
2023-02-19T21:01:27.698Z,101021.33
2023-02-19T21:03:40.586Z,101019.61
2023-02-19T21:05:53.285Z,101022.02
2023-02-19T21:08:05.834Z,101028.33
2023-02-19T21:10:18.619Z,101027.81
2023-02-19T21:12:31.610Z,101024.56
2023-02-19T21:14:44.431Z,101024.71
2023-02-19T21:16:57.121Z,101032.77
2023-02-19T21:19:09.774Z,101036.02
2023-02-19T21:21:27.113Z,101044.23
2023-02-19T21:23:39.597Z,101045.59
2023-02-19T21:25:54.528Z,101050.05
2023-02-19T21:28:09.070Z,101049.52
2023-02-19T21:30:21.826Z,101054.33
2023-02-19T21:32:34.394Z,101056.54
2023-02-19T21:34:47.017Z,101054.48
2023-02-19T21:36:59.867Z,101056.87
2023-02-19T21:39:15.757Z,101057.20
2023-02-19T21:41:28.969Z,101059.41
2023-02-19T21:43:41.550Z,101057.20
2023-02-19T21:45:54.128Z,101064.05
2023-02-19T21:48:08.048Z,101059.92
2023-02-19T21:50:21.561Z,101063.87
2023-02-19T21:52:34.193Z,101061.27
2023-02-19T21:54:46.869Z,101067.27
2023-02-19T21:57:02.788Z,101079.27
2023-02-19T21:59:15.868Z,101086.45
2023-02-19T22:01:32.564Z,101086.28
2023-02-19T22:03:45.114Z,101084.38
2023-02-19T22:06:01.268Z,101084.70
2023-02-19T22:08:15.547Z,101087.80
2023-02-19T22:10:28.157Z,101090.52
2023-02-19T22:12:40.947Z,101088.81
2023-02-19T22:14:53.830Z,101090.00
2023-02-19T22:17:06.383Z,101086.56
2023-02-19T22:19:18.952Z,101090.49
2023-02-19T22:21:32.482Z,101089.97
2023-02-19T22:23:50.115Z,101091.16
2023-02-19T22:26:02.774Z,101094.08
2023-02-19T22:28:15.634Z,101096.32
2023-02-19T22:30:28.272Z,101098.20
2023-02-19T22:32:41.376Z,101096.64
2023-02-19T22:34:54.009Z,101098.84
2023-02-19T22:37:06.742Z,101095.77
2023-02-19T22:39:25.923Z,101093.88
2023-02-19T22:41:42.125Z,101088.73
2023-02-19T22:43:55.959Z,101086.15
2023-02-19T22:46:17.305Z,101094.54
2023-02-19T22:48:31.298Z,101094.72
2023-02-19T22:50:43.862Z,101093.85
2023-02-19T22:52:56.441Z,101096.42
2023-02-19T22:55:08.970Z,101098.46
2023-02-19T22:57:21.670Z,101094.71
2023-02-19T22:59:34.350Z,101095.21
2023-02-19T23:01:47.500Z,101097.63
2023-02-19T23:04:01.269Z,101099.33
2023-02-19T23:06:14.772Z,101093.49
2023-02-19T23:08:27.419Z,101099.48
2023-02-19T23:10:40.944Z,101096.05
2023-02-19T23:12:53.518Z,101093.13
2023-02-19T23:15:07.430Z,101089.71
2023-02-19T23:17:20.176Z,101089.70
2023-02-19T23:19:32.741Z,101094.31
2023-02-19T23:21:47.065Z,101096.02
2023-02-19T23:23:59.786Z,101098.05
2023-02-19T23:26:13.984Z,101096.00
2023-02-19T23:28:26.753Z,101094.09
2023-02-19T23:30:39.356Z,101093.77
2023-02-19T23:32:51.908Z,101087.45
2023-02-19T23:35:04.644Z,101078.55
2023-02-19T23:37:17.646Z,101079.39
2023-02-19T23:39:30.209Z,101071.17
2023-02-19T23:41:47.922Z,101072.69
2023-02-19T23:44:00.491Z,101071.30
2023-02-19T23:46:17.333Z,101069.39
2023-02-19T23:48:30.303Z,101068.52
2023-02-19T23:50:42.850Z,101072.60
2023-02-19T23:52:56.812Z,101072.08
2023-02-19T23:55:09.424Z,101070.17
2023-02-19T23:57:21.924Z,101066.06
2023-02-19T23:59:34.428Z,101062.77
